首页
METAR-TAF:

METAR-TAF

机场 :

Wekweeti, 西北特區, 加拿大

纬度: 64-11-27N, 经度: 114-04-36W, 海拔: 368米

当前天气观测

该预报发布于33分钟前的12:03 UTC
风速6节,风向东转东北
温度 10°C
湿度 100%
气压 1015 hPa
能見度: 14.5公里
多云层高于900英尺
多云层高于5000英尺
阴天层高于6500英尺

METAR: CYWE 191203Z AUTO 07006KT 9SM BKN009 BKN050 OVC065 10/10 A2998 RMK SLP169

时间: 06:36 (12:36 UTC)

预报

该预报发布于13小时和0分钟前的23:36 UTC
预报有效从18日的 23点(UTC)到 19日的 01点(UTC)
风速8节,风向东转东北
能見度: 10公里
多云层高于5000英尺

TAF: CYWE 182336Z 1823/1901 07008KT P6SM BKN050 RMK FCST BASED ON AUTO OBS. NXT FCST WILL BE ISSUED AT 191245Z

超过4000个机场的气象观测和天气预报(METAR&TAF报告)。

可查询的气象台以黄色和红色小点在地图上表示。

将鼠标移到小点上方,可查看气象台名称。

然后点击查看天气观测和预报。

如需切换地图:点击带黑十字的绿色按钮放大地图;点击带横线的绿色按钮缩小地图;或者点击绿色箭头查看邻近地区的地图。


METAR-TAF: